createdAt,value
2018-05-14T00:02:04.956Z,65.37
2018-05-14T00:04:34.424Z,64.85
2018-05-14T00:07:04.482Z,60.00
2018-05-14T00:09:34.693Z,64.28
2018-05-14T00:12:05.305Z,63.20
2018-05-14T00:14:38.270Z,64.43
2018-05-14T00:17:09.242Z,62.62
2018-05-14T00:19:39.768Z,66.90
2018-05-14T00:22:10.358Z,67.55
2018-05-14T00:24:40.339Z,67.47
2018-05-14T00:27:12.415Z,66.35
2018-05-14T00:29:45.490Z,64.97
2018-05-14T00:32:15.492Z,61.83
2018-05-14T00:34:48.318Z,64.07
2018-05-14T00:37:20.495Z,62.38
2018-05-14T00:39:52.252Z,62.58
2018-05-14T00:42:21.908Z,61.97
2018-05-14T00:44:54.540Z,64.75
2018-05-14T00:47:24.396Z,65.82
2018-05-14T00:49:57.050Z,65.25
2018-05-14T00:52:29.056Z,60.55
2018-05-14T00:55:10.076Z,59.33
2018-05-14T00:57:40.203Z,62.62
2018-05-14T01:00:09.850Z,62.10
2018-05-14T01:02:42.309Z,63.67
2018-05-14T01:05:14.285Z,63.53
2018-05-14T01:07:46.793Z,61.67
2018-05-14T01:10:18.592Z,61.40
2018-05-14T01:12:50.655Z,64.30
2018-05-14T01:15:20.045Z,60.12
2018-05-14T01:17:50.510Z,59.15
2018-05-14T01:20:20.900Z,62.95
2018-05-14T01:22:52.610Z,62.95
2018-05-14T01:25:24.682Z,62.30
2018-05-14T01:27:54.304Z,59.92
2018-05-14T01:30:25.301Z,60.10
2018-05-14T01:32:57.962Z,63.35
2018-05-14T01:35:28.273Z,56.60
2018-05-14T01:37:57.828Z,61.37
2018-05-14T01:40:29.710Z,62.17
2018-05-14T01:43:01.322Z,59.58
2018-05-14T01:45:31.561Z,61.30
2018-05-14T01:48:02.375Z,60.65
2018-05-14T01:50:32.616Z,62.13
2018-05-14T01:53:05.721Z,59.97
2018-05-14T01:55:36.360Z,62.83
2018-05-14T01:58:05.970Z,60.63
2018-05-14T02:00:37.535Z,62.47
2018-05-14T02:03:07.332Z,60.00
2018-05-14T02:05:39.273Z,60.03
2018-05-14T02:08:11.496Z,57.85
2018-05-14T02:10:44.345Z,61.30
2018-05-14T02:13:16.208Z,58.85
2018-05-14T02:15:47.025Z,56.15
2018-05-14T02:18:18.972Z,61.25
2018-05-14T02:20:51.867Z,59.97
2018-05-14T02:23:23.604Z,55.08
2018-05-14T02:25:55.277Z,59.15
2018-05-14T02:28:27.109Z,60.00
2018-05-14T02:31:00.480Z,59.67
2018-05-14T02:33:30.204Z,60.33
2018-05-14T02:35:59.631Z,56.90
2018-05-14T02:38:31.267Z,57.53
2018-05-14T02:41:01.296Z,60.05
2018-05-14T02:43:33.933Z,62.17
2018-05-14T02:46:05.644Z,56.92
2018-05-14T02:48:38.557Z,61.30
2018-05-14T02:51:10.453Z,59.05
2018-05-14T02:53:42.175Z,59.90
2018-05-14T02:56:11.754Z,59.08
2018-05-14T02:58:42.279Z,61.63
2018-05-14T03:01:14.861Z,58.72
2018-05-14T03:03:45.728Z,57.13
2018-05-14T03:06:20.020Z,57.05
2018-05-14T03:08:52.490Z,59.92
2018-05-14T03:11:25.070Z,56.00
2018-05-14T03:13:56.881Z,56.90
2018-05-14T03:16:28.882Z,56.05
2018-05-14T03:18:59.234Z,59.75
2018-05-14T03:21:28.872Z,54.22
2018-05-14T03:24:00.805Z,55.33
2018-05-14T03:26:30.914Z,60.47
2018-05-14T03:29:03.898Z,60.65
2018-05-14T03:31:35.035Z,59.88
2018-05-14T03:34:04.879Z,62.05
2018-05-14T03:36:44.120Z,67.97
2018-05-14T03:39:14.103Z,56.63
2018-05-14T03:41:44.904Z,48.03
2018-05-14T03:44:15.838Z,50.47
2018-05-14T03:46:47.611Z,47.42
2018-05-14T03:49:20.153Z,50.10
2018-05-14T03:51:50.184Z,54.97
2018-05-14T03:54:19.119Z,48.85
2018-05-14T03:56:57.468Z,50.47
2018-05-14T03:59:38.379Z,50.30
2018-05-14T04:02:22.700Z,57.95
2018-05-14T04:05:03.594Z,55.45
2018-05-14T04:07:35.634Z,55.33
2018-05-14T04:10:05.361Z,52.58
2018-05-14T04:12:36.137Z,51.65
2018-05-14T04:15:08.583Z,52.90
2018-05-14T04:17:40.463Z,52.20
2018-05-14T04:20:12.998Z,51.72
2018-05-14T04:22:43.739Z,55.35
2018-05-14T04:25:13.385Z,50.63
2018-05-14T04:27:43.831Z,55.70
2018-05-14T04:30:14.551Z,50.67
2018-05-14T04:32:46.940Z,52.10
2018-05-14T04:35:17.393Z,56.03
2018-05-14T04:37:48.191Z,53.83
2018-05-14T04:40:21.321Z,54.95
2018-05-14T04:42:53.147Z,56.33
2018-05-14T04:45:24.880Z,55.72
2018-05-14T04:47:54.605Z,55.47
2018-05-14T04:50:27.291Z,54.28
2018-05-14T04:52:59.907Z,55.85
2018-05-14T04:55:30.727Z,56.63
2018-05-14T04:58:02.784Z,53.85
2018-05-14T05:00:34.478Z,54.17
2018-05-14T05:03:04.597Z,54.35
2018-05-14T05:05:36.872Z,55.03
2018-05-14T05:08:07.912Z,53.33
2018-05-14T05:10:39.654Z,53.67
2018-05-14T05:13:09.368Z,55.60
2018-05-14T05:15:41.159Z,53.95
2018-05-14T05:18:13.848Z,53.87
2018-05-14T05:20:46.426Z,53.78
2018-05-14T05:23:18.774Z,54.13
2018-05-14T05:25:48.374Z,55.08
2018-05-14T05:28:19.069Z,55.22
2018-05-14T05:30:51.547Z,53.60
2018-05-14T05:33:21.022Z,54.25
2018-05-14T05:35:53.694Z,50.83
2018-05-14T05:38:27.373Z,54.20
2018-05-14T05:40:57.572Z,54.60
2018-05-14T05:43:29.882Z,51.45
2018-05-14T05:46:01.082Z,54.85
2018-05-14T05:48:38.678Z,52.47
2018-05-14T05:51:10.977Z,51.10
2018-05-14T05:53:45.027Z,52.15
2018-05-14T05:56:15.103Z,52.40
2018-05-14T05:58:52.517Z,47.97
2018-05-14T06:01:36.528Z,50.95
2018-05-14T06:04:16.067Z,51.10
2018-05-14T06:06:53.281Z,53.15
2018-05-14T06:09:23.430Z,49.28
2018-05-14T06:12:01.218Z,52.25
2018-05-14T06:14:31.470Z,48.78
2018-05-14T06:17:01.328Z,47.67
2018-05-14T06:19:31.891Z,48.25
2018-05-14T06:22:03.026Z,46.47
2018-05-14T06:24:40.260Z,45.22
2018-05-14T06:27:17.961Z,47.30
2018-05-14T06:29:49.850Z,44.78
2018-05-14T06:32:21.927Z,45.47
2018-05-14T06:34:51.846Z,45.58
2018-05-14T06:37:22.868Z,48.97
2018-05-14T06:40:01.318Z,45.20
2018-05-14T06:42:34.047Z,45.03
2018-05-14T06:45:12.898Z,43.67
2018-05-14T06:47:42.252Z,44.35
2018-05-14T06:50:14.913Z,45.12
2018-05-14T06:52:44.863Z,41.92
2018-05-14T06:55:16.442Z,42.17
2018-05-14T06:57:46.077Z,40.20
2018-05-14T07:00:15.866Z,42.78
2018-05-14T07:02:45.836Z,42.85
2018-05-14T07:05:17.872Z,42.25
2018-05-14T07:07:50.055Z,42.75
2018-05-14T07:10:19.933Z,43.63
2018-05-14T07:12:52.941Z,46.60
2018-05-14T07:15:24.096Z,45.65
2018-05-14T07:17:56.406Z,42.15
2018-05-14T07:20:27.301Z,41.10
2018-05-14T07:22:59.661Z,43.80
2018-05-14T07:25:31.941Z,44.08
2018-05-14T07:28:02.442Z,42.10
2018-05-14T07:30:34.501Z,42.47
2018-05-14T07:33:18.484Z,42.15
2018-05-14T07:35:51.633Z,43.03
2018-05-14T07:38:22.147Z,44.40
2018-05-14T07:40:53.491Z,42.72
2018-05-14T07:43:24.363Z,43.42
2018-05-14T07:45:57.656Z,40.17
2018-05-14T07:48:27.650Z,41.95
2018-05-14T07:50:57.658Z,43.05
2018-05-14T07:53:28.286Z,44.05
2018-05-14T07:56:00.007Z,42.20
2018-05-14T07:58:30.062Z,45.12
2018-05-14T08:01:00.999Z,45.83
2018-05-14T08:03:32.868Z,41.42
2018-05-14T08:06:04.136Z,43.38
2018-05-14T08:08:34.137Z,42.95
2018-05-14T08:11:05.078Z,44.90
2018-05-14T08:13:37.592Z,42.53
2018-05-14T08:16:08.467Z,42.88
2018-05-14T08:18:39.106Z,42.90
2018-05-14T08:21:10.562Z,44.20
2018-05-14T08:23:42.853Z,44.53
2018-05-14T08:26:14.451Z,43.47
2018-05-14T08:28:45.557Z,44.57
2018-05-14T08:31:16.319Z,44.17
2018-05-14T08:33:47.492Z,44.90
2018-05-14T08:36:18.193Z,45.90
2018-05-14T08:38:48.044Z,45.60
2018-05-14T08:41:21.432Z,42.50
2018-05-14T08:43:52.525Z,43.90
2018-05-14T08:46:23.973Z,46.20
2018-05-14T08:48:54.128Z,46.23
2018-05-14T08:51:24.008Z,45.77
2018-05-14T08:53:55.292Z,44.73
2018-05-14T08:56:26.576Z,45.13
2018-05-14T08:58:56.959Z,46.60
2018-05-14T09:01:29.389Z,47.90
2018-05-14T09:03:59.808Z,51.50
2018-05-14T09:06:32.609Z,50.43
2018-05-14T09:09:03.193Z,49.93
2018-05-14T09:11:34.601Z,49.37
2018-05-14T09:14:06.121Z,48.37
2018-05-14T09:16:38.701Z,47.80
2018-05-14T09:19:09.734Z,45.40
2018-05-14T09:21:39.802Z,46.10
2018-05-14T09:24:10.312Z,44.40
2018-05-14T09:26:40.594Z,45.60
2018-05-14T09:29:13.640Z,44.23
2018-05-14T09:31:44.413Z,45.80
2018-05-14T09:34:15.810Z,45.57
2018-05-14T09:36:45.774Z,40.50
2018-05-14T09:39:17.731Z,43.00
2018-05-14T09:41:49.087Z,46.30
2018-05-14T09:44:19.793Z,46.87
2018-05-14T09:46:49.818Z,43.97
2018-05-14T09:49:21.469Z,43.93
2018-05-14T09:51:52.389Z,42.90
2018-05-14T09:54:25.606Z,44.87
2018-05-14T09:56:55.515Z,47.80
2018-05-14T09:59:25.523Z,47.27
2018-05-14T10:01:55.530Z,42.53
2018-05-14T10:04:26.691Z,47.10
2018-05-14T10:06:56.573Z,44.40
2018-05-14T10:09:26.606Z,45.73
2018-05-14T10:11:59.593Z,43.80
2018-05-14T10:14:31.783Z,44.83
2018-05-14T10:17:03.565Z,43.77
2018-05-14T10:19:34.679Z,44.17
2018-05-14T10:22:05.769Z,45.10
2018-05-14T10:24:35.569Z,45.17
2018-05-14T10:27:06.863Z,45.87
2018-05-14T10:29:38.017Z,44.83
2018-05-14T10:32:10.344Z,43.07
2018-05-14T10:34:40.461Z,44.80
2018-05-14T10:37:11.499Z,42.07
2018-05-14T10:39:41.384Z,39.20
2018-05-14T10:42:15.325Z,41.73
2018-05-14T10:44:45.246Z,40.60
2018-05-14T10:47:16.131Z,44.33
2018-05-14T10:49:49.061Z,46.03
2018-05-14T10:52:19.813Z,45.83
2018-05-14T10:54:50.357Z,41.57
2018-05-14T10:57:20.440Z,41.07
2018-05-14T10:59:51.005Z,37.97
2018-05-14T11:02:20.913Z,37.10
2018-05-14T11:04:52.327Z,37.83
2018-05-14T11:07:22.250Z,37.20
2018-05-14T11:09:52.237Z,39.10
2018-05-14T11:12:23.064Z,37.67
2018-05-14T11:14:53.722Z,35.90
2018-05-14T11:17:24.794Z,34.60
2018-05-14T11:19:56.086Z,36.20
2018-05-14T11:22:26.543Z,35.00
2018-05-14T11:24:58.586Z,33.30
2018-05-14T11:27:30.182Z,31.17
2018-05-14T11:30:00.471Z,33.27
2018-05-14T11:32:31.986Z,34.10
2018-05-14T11:35:02.650Z,32.97
2018-05-14T11:37:36.896Z,32.10
2018-05-14T11:40:09.654Z,31.83
2018-05-14T11:42:40.599Z,28.70
2018-05-14T11:45:13.906Z,29.97
2018-05-14T11:47:44.523Z,29.77
2018-05-14T11:50:15.763Z,30.97
2018-05-14T11:52:50.953Z,31.03
2018-05-14T11:55:20.869Z,31.60
2018-05-14T11:57:53.391Z,32.90
2018-05-14T12:00:26.391Z,31.10
2018-05-14T12:02:57.087Z,28.60
2018-05-14T12:05:27.973Z,28.90
2018-05-14T12:07:59.196Z,30.80
2018-05-14T12:10:31.061Z,31.73
2018-05-14T12:13:01.759Z,30.07
2018-05-14T12:15:31.555Z,29.70
2018-05-14T12:18:03.795Z,27.67
2018-05-14T12:20:35.939Z,29.13
2018-05-14T12:23:08.914Z,27.90
2018-05-14T12:25:39.881Z,30.50
2018-05-14T12:28:11.935Z,29.17
2018-05-14T12:30:43.222Z,25.87
2018-05-14T12:33:14.429Z,27.97
2018-05-14T12:35:45.221Z,28.30
2018-05-14T12:38:17.183Z,26.20
2018-05-14T12:40:51.904Z,25.80
2018-05-14T12:43:23.285Z,26.93
2018-05-14T12:45:54.279Z,25.30
2018-05-14T12:48:26.362Z,25.80
2018-05-14T12:50:56.226Z,25.80
2018-05-14T12:53:27.098Z,24.37
2018-05-14T12:55:59.550Z,20.23
2018-05-14T12:58:32.036Z,21.37
2018-05-14T13:01:04.371Z,20.53
2018-05-14T13:03:37.989Z,17.23
2018-05-14T13:06:08.491Z,16.10
2018-05-14T13:08:41.647Z,17.93
2018-05-14T13:11:12.057Z,17.33
2018-05-14T13:13:44.228Z,18.03
2018-05-14T13:16:14.220Z,16.40
2018-05-14T13:18:44.525Z,14.90
2018-05-14T13:21:15.156Z,13.63
2018-05-14T13:23:46.043Z,14.27
2018-05-14T13:26:16.725Z,13.00
2018-05-14T13:28:47.013Z,12.63
2018-05-14T13:31:18.439Z,12.60
2018-05-14T13:33:48.658Z,11.73
2018-05-14T13:36:20.750Z,12.33
2018-05-14T13:38:50.623Z,10.07
2018-05-14T13:41:20.745Z,11.47
2018-05-14T13:43:50.863Z,10.30
2018-05-14T13:46:21.888Z,11.33
2018-05-14T13:48:53.628Z,9.60
2018-05-14T13:51:23.424Z,9.77
2018-05-14T13:53:55.841Z,10.70
2018-05-14T13:56:28.745Z,9.17
2018-05-14T13:58:59.773Z,9.43
2018-05-14T14:01:30.409Z,10.83
2018-05-14T14:04:01.626Z,9.27
2018-05-14T14:06:31.636Z,9.50
2018-05-14T14:09:04.763Z,7.97
2018-05-14T14:11:35.101Z,9.03
2018-05-14T14:14:09.695Z,9.33
2018-05-14T14:16:41.571Z,8.57
2018-05-14T14:19:13.495Z,8.37
2018-05-14T14:21:45.945Z,8.37
2018-05-14T14:24:19.166Z,7.00
2018-05-14T14:26:49.346Z,8.20
2018-05-14T14:29:22.068Z,5.80
2018-05-14T14:31:54.182Z,6.17
2018-05-14T14:34:25.811Z,7.13
2018-05-14T14:36:57.268Z,6.00
2018-05-14T14:39:28.631Z,6.00
2018-05-14T14:41:59.230Z,6.00
2018-05-14T14:44:31.754Z,6.87
2018-05-14T14:47:02.040Z,5.03
2018-05-14T14:49:33.236Z,5.17
2018-05-14T14:52:03.253Z,5.27
2018-05-14T14:54:33.405Z,4.60
2018-05-14T14:57:04.100Z,4.87
2018-05-14T14:59:33.765Z,4.30
2018-05-14T15:02:05.925Z,5.27
2018-05-14T15:04:37.110Z,4.80
2018-05-14T15:07:10.708Z,4.60
2018-05-14T15:09:41.178Z,4.73
2018-05-14T15:12:12.183Z,4.53
2018-05-14T15:14:42.377Z,5.87
2018-05-14T15:17:13.218Z,4.23
2018-05-14T15:19:45.575Z,4.97
2018-05-14T15:22:15.748Z,5.00
2018-05-14T15:24:47.529Z,4.43
2018-05-14T15:27:18.679Z,5.23
2018-05-14T15:29:48.623Z,3.97
2018-05-14T15:32:18.908Z,4.83
2018-05-14T15:34:49.780Z,4.63
2018-05-14T15:37:19.243Z,4.70
2018-05-14T15:39:49.975Z,4.83
2018-05-14T15:42:21.067Z,4.77
2018-05-14T15:44:54.192Z,5.40
2018-05-14T15:47:24.943Z,5.00
2018-05-14T15:49:56.109Z,4.37
2018-05-14T15:52:25.964Z,4.40
2018-05-14T15:54:56.138Z,4.27
2018-05-14T15:57:26.753Z,4.83
2018-05-14T15:59:58.611Z,5.90
2018-05-14T16:02:31.364Z,4.63
2018-05-14T16:05:03.797Z,5.60
2018-05-14T16:07:35.895Z,4.20
2018-05-14T16:10:07.653Z,4.47
2018-05-14T16:12:38.898Z,4.60
2018-05-14T16:15:09.025Z,4.50
2018-05-14T16:17:41.447Z,4.20
2018-05-14T16:20:11.205Z,3.80
2018-05-14T16:22:43.375Z,4.20
2018-05-14T16:25:14.574Z,5.37
2018-05-14T16:27:45.611Z,3.90
2018-05-14T16:30:15.738Z,4.20
2018-05-14T16:32:48.014Z,4.20
2018-05-14T16:35:18.471Z,4.17
2018-05-14T16:37:49.670Z,4.47
2018-05-14T16:40:23.664Z,3.60
2018-05-14T16:42:56.929Z,4.00
2018-05-14T16:45:28.135Z,4.13
2018-05-14T16:48:00.433Z,4.50
2018-05-14T16:50:30.523Z,3.90
2018-05-14T16:53:00.428Z,3.37
2018-05-14T16:55:31.649Z,3.87
2018-05-14T16:58:02.908Z,3.90
2018-05-14T17:00:34.028Z,3.27
2018-05-14T17:03:06.190Z,3.63
2018-05-14T17:05:36.271Z,4.23
2018-05-14T17:08:07.597Z,3.60
2018-05-14T17:10:37.744Z,3.60
2018-05-14T17:13:07.479Z,4.00
2018-05-14T17:15:40.192Z,4.30
2018-05-14T17:18:10.407Z,3.10
2018-05-14T17:20:41.081Z,3.80
2018-05-14T17:23:13.867Z,4.30
2018-05-14T17:25:44.386Z,3.93
2018-05-14T17:28:14.357Z,5.00
2018-05-14T17:30:44.929Z,3.90
2018-05-14T17:33:17.505Z,3.90
2018-05-14T17:35:48.075Z,4.40
2018-05-14T17:38:19.379Z,3.73
2018-05-14T17:40:49.118Z,4.37
2018-05-14T17:43:21.215Z,4.53
2018-05-14T17:45:52.293Z,6.47
2018-05-14T17:48:24.291Z,6.07
2018-05-14T17:50:56.157Z,6.53
2018-05-14T17:53:26.006Z,5.50
2018-05-14T17:55:55.770Z,6.77
2018-05-14T17:58:25.780Z,5.27
2018-05-14T18:00:57.029Z,6.73
2018-05-14T18:03:27.992Z,6.17
2018-05-14T18:06:01.794Z,5.60
2018-05-14T18:08:33.089Z,5.63
2018-05-14T18:11:03.459Z,7.50
2018-05-14T18:13:34.612Z,6.00
2018-05-14T18:16:07.481Z,8.07
2018-05-14T18:18:39.445Z,13.70
2018-05-14T18:21:11.721Z,8.13
2018-05-14T18:23:47.527Z,4.80
2018-05-14T18:26:19.752Z,4.20
2018-05-14T18:28:50.223Z,5.07
2018-05-14T18:31:25.471Z,4.23
2018-05-14T18:34:14.888Z,4.10
2018-05-14T18:36:45.638Z,5.60
2018-05-14T18:39:17.871Z,5.43
2018-05-14T18:41:47.830Z,4.90
2018-05-14T18:44:19.793Z,4.23
2018-05-14T18:46:50.493Z,4.27
2018-05-14T18:49:21.415Z,4.30
2018-05-14T18:51:52.782Z,4.60
2018-05-14T18:54:23.651Z,4.40
2018-05-14T18:56:55.495Z,4.60
2018-05-14T18:59:28.175Z,4.77
2018-05-14T19:02:04.395Z,4.50
2018-05-14T19:04:35.016Z,5.17
2018-05-14T19:07:07.531Z,4.90
2018-05-14T19:09:38.472Z,6.97
2018-05-14T19:12:10.669Z,6.60
2018-05-14T19:14:40.393Z,6.87
2018-05-14T19:17:17.450Z,7.23
2018-05-14T19:19:49.776Z,7.60
2018-05-14T19:22:25.213Z,6.13
2018-05-14T19:24:56.205Z,6.33
2018-05-14T19:27:27.042Z,5.47
2018-05-14T19:29:58.905Z,5.40
2018-05-14T19:32:31.723Z,5.70
2018-05-14T19:35:07.013Z,5.50
2018-05-14T19:37:37.850Z,4.93
2018-05-14T19:40:13.648Z,5.07
2018-05-14T19:42:44.528Z,5.20
2018-05-14T19:45:16.777Z,4.70
2018-05-14T19:47:48.770Z,5.70
2018-05-14T19:50:19.427Z,5.10
2018-05-14T19:52:49.493Z,5.20
2018-05-14T19:55:21.890Z,5.93
2018-05-14T19:57:53.670Z,4.70
2018-05-14T20:00:24.545Z,5.07
2018-05-14T20:02:54.310Z,5.23
2018-05-14T20:05:25.360Z,5.90
2018-05-14T20:07:55.901Z,5.27
2018-05-14T20:10:28.338Z,5.10
2018-05-14T20:12:58.089Z,5.27
2018-05-14T20:15:28.861Z,5.63
2018-05-14T20:17:58.801Z,4.57
2018-05-14T20:20:31.201Z,5.20
2018-05-14T20:23:01.141Z,5.63
2018-05-14T20:25:33.511Z,5.40
2018-05-14T20:28:05.332Z,6.63
2018-05-14T20:30:36.190Z,4.73
2018-05-14T20:33:08.273Z,4.87
2018-05-14T20:35:38.573Z,5.43
2018-05-14T20:38:10.685Z,5.87
2018-05-14T20:40:40.705Z,5.60
2018-05-14T20:43:12.763Z,5.07
2018-05-14T20:45:45.016Z,5.63
2018-05-14T20:48:14.939Z,5.00
2018-05-14T20:50:45.529Z,5.90
2018-05-14T20:53:16.139Z,5.27
2018-05-14T20:55:49.178Z,5.27
2018-05-14T20:58:18.960Z,5.83
2018-05-14T21:00:50.740Z,5.90
2018-05-14T21:03:20.381Z,6.30
2018-05-14T21:05:50.309Z,5.77
2018-05-14T21:08:23.201Z,5.90
2018-05-14T21:10:53.411Z,6.07
2018-05-14T21:13:25.335Z,6.60
2018-05-14T21:15:55.888Z,6.20
2018-05-14T21:18:26.936Z,6.93
2018-05-14T21:20:57.917Z,6.07
2018-05-14T21:23:28.670Z,5.60
2018-05-14T21:26:00.991Z,5.80
2018-05-14T21:28:32.163Z,5.60
2018-05-14T21:31:03.515Z,5.90
2018-05-14T21:33:33.173Z,6.67
2018-05-14T21:36:05.566Z,5.80
2018-05-14T21:38:36.056Z,6.73
2018-05-14T21:41:08.278Z,5.87
2018-05-14T21:43:40.005Z,6.80
2018-05-14T21:46:09.877Z,6.20
2018-05-14T21:48:39.516Z,6.23
2018-05-14T21:51:11.567Z,6.37
2018-05-14T21:53:41.356Z,6.23
2018-05-14T21:56:11.089Z,6.60
2018-05-14T21:58:40.796Z,7.30
2018-05-14T22:01:10.553Z,7.67
2018-05-14T22:03:41.456Z,7.90
2018-05-14T22:06:15.382Z,9.10
2018-05-14T22:08:45.238Z,8.37
2018-05-14T22:11:17.462Z,8.40
2018-05-14T22:13:47.144Z,7.20
2018-05-14T22:16:19.312Z,6.77
2018-05-14T22:18:49.342Z,7.20
2018-05-14T22:21:21.616Z,7.10
2018-05-14T22:23:53.680Z,9.77
2018-05-14T22:26:24.345Z,7.93
2018-05-14T22:28:56.069Z,7.23
2018-05-14T22:31:28.161Z,7.93
2018-05-14T22:33:58.959Z,7.40
2018-05-14T22:36:28.795Z,8.17
2018-05-14T22:38:58.752Z,8.10
2018-05-14T22:41:30.443Z,9.23
2018-05-14T22:44:00.260Z,8.80
2018-05-14T22:46:32.497Z,8.13
2018-05-14T22:49:03.243Z,7.50
2018-05-14T22:51:34.037Z,9.37
2018-05-14T22:54:04.328Z,8.50
2018-05-14T22:56:36.397Z,10.20
2018-05-14T22:59:06.807Z,9.40
2018-05-14T23:01:36.642Z,8.50
2018-05-14T23:04:06.197Z,8.90
2018-05-14T23:06:36.986Z,8.83
2018-05-14T23:09:09.160Z,8.70
2018-05-14T23:11:38.909Z,10.43
2018-05-14T23:14:10.785Z,11.00
2018-05-14T23:16:41.637Z,10.43
2018-05-14T23:19:13.174Z,9.63
2018-05-14T23:21:46.113Z,10.60
2018-05-14T23:24:16.649Z,9.10
2018-05-14T23:26:46.517Z,9.47
2018-05-14T23:29:17.519Z,9.30
2018-05-14T23:31:49.339Z,10.90
2018-05-14T23:34:20.947Z,10.00
2018-05-14T23:36:52.668Z,10.03
2018-05-14T23:39:22.269Z,9.30
2018-05-14T23:41:53.008Z,9.90
2018-05-14T23:44:22.887Z,10.00
2018-05-14T23:46:52.565Z,11.60
2018-05-14T23:49:22.313Z,11.83
2018-05-14T23:51:53.775Z,13.20
2018-05-14T23:54:25.773Z,13.07
2018-05-14T23:56:56.466Z,13.40
2018-05-14T23:59:26.115Z,13.53
